sensor_id;sensor_type;location;lat;lon;timestamp;temperature;humidity
36434;DHT22;31691;51.972;5.672;2023-09-19T00:01:23;21.30;99.90
36434;DHT22;31691;51.972;5.672;2023-09-19T00:06:28;21.30;99.90
36434;DHT22;31691;51.972;5.672;2023-09-19T00:11:33;21.20;99.90
36434;DHT22;31691;51.972;5.672;2023-09-19T00:16:37;21.30;99.90
36434;DHT22;31691;51.972;5.672;2023-09-19T00:21:39;21.40;99.90
36434;DHT22;31691;51.972;5.672;2023-09-19T00:26:43;21.30;99.90
36434;DHT22;31691;51.972;5.672;2023-09-19T00:31:45;21.50;99.90
36434;DHT22;31691;51.972;5.672;2023-09-19T00:36:48;21.40;99.90
36434;DHT22;31691;51.972;5.672;2023-09-19T00:41:50;21.40;99.90
36434;DHT22;31691;51.972;5.672;2023-09-19T00:46:53;21.50;99.90
36434;DHT22;31691;51.972;5.672;2023-09-19T00:51:55;21.50;99.90
36434;DHT22;31691;51.972;5.672;2023-09-19T00:56:58;21.50;99.90
36434;DHT22;31691;51.972;5.672;2023-09-19T01:02:02;21.70;99.90
36434;DHT22;31691;51.972;5.672;2023-09-19T01:07:04;21.70;99.90
36434;DHT22;31691;51.972;5.672;2023-09-19T01:12:08;21.70;99.90
36434;DHT22;31691;51.972;5.672;2023-09-19T01:17:20;21.70;99.90
36434;DHT22;31691;51.972;5.672;2023-09-19T01:22:35;21.50;99.90
36434;DHT22;31691;51.972;5.672;2023-09-19T01:29:01;21.40;99.90
36434;DHT22;31691;51.972;5.672;2023-09-19T01:33:21;21.50;99.90
36434;DHT22;31691;51.972;5.672;2023-09-19T01:38:25;21.30;99.90
36434;DHT22;31691;51.972;5.672;2023-09-19T01:43:35;21.10;99.90
36434;DHT22;31691;51.972;5.672;2023-09-19T01:49:04;20.90;99.90
36434;DHT22;31691;51.972;5.672;2023-09-19T01:54:18;21.10;99.90
36434;DHT22;31691;51.972;5.672;2023-09-19T01:59:25;20.80;99.90
36434;DHT22;31691;51.972;5.672;2023-09-19T02:04:30;20.70;99.90
36434;DHT22;31691;51.972;5.672;2023-09-19T02:09:34;20.40;99.90
36434;DHT22;31691;51.972;5.672;2023-09-19T02:14:37;20.50;99.90
36434;DHT22;31691;51.972;5.672;2023-09-19T02:19:39;20.50;99.90
36434;DHT22;31691;51.972;5.672;2023-09-19T02:24:43;20.20;99.90
36434;DHT22;31691;51.972;5.672;2023-09-19T02:29:45;20.10;99.90
36434;DHT22;31691;51.972;5.672;2023-09-19T02:34:47;20.30;99.90
36434;DHT22;31691;51.972;5.672;2023-09-19T02:39:49;20.30;99.90
36434;DHT22;31691;51.972;5.672;2023-09-19T02:44:51;20.30;99.90
36434;DHT22;31691;51.972;5.672;2023-09-19T02:49:53;20.10;99.90
36434;DHT22;31691;51.972;5.672;2023-09-19T02:54:56;20.10;99.90
36434;DHT22;31691;51.972;5.672;2023-09-19T02:59:58;19.90;99.90
36434;DHT22;31691;51.972;5.672;2023-09-19T03:05:01;19.90;99.90
36434;DHT22;31691;51.972;5.672;2023-09-19T03:10:06;19.90;99.90
36434;DHT22;31691;51.972;5.672;2023-09-19T03:15:09;19.90;99.90
36434;DHT22;31691;51.972;5.672;2023-09-19T03:20:12;19.90;99.90
36434;DHT22;31691;51.972;5.672;2023-09-19T03:25:16;20.00;99.90
36434;DHT22;31691;51.972;5.672;2023-09-19T03:30:19;20.10;99.90
36434;DHT22;31691;51.972;5.672;2023-09-19T03:35:22;19.90;99.90
36434;DHT22;31691;51.972;5.672;2023-09-19T03:40:24;19.90;99.90
36434;DHT22;31691;51.972;5.672;2023-09-19T03:45:27;19.80;99.90
36434;DHT22;31691;51.972;5.672;2023-09-19T03:50:29;19.50;99.90
36434;DHT22;31691;51.972;5.672;2023-09-19T03:55:31;19.40;99.90
36434;DHT22;31691;51.972;5.672;2023-09-19T04:00:34;19.40;99.90
36434;DHT22;31691;51.972;5.672;2023-09-19T04:05:40;19.50;99.90
36434;DHT22;31691;51.972;5.672;2023-09-19T04:10:43;19.50;99.90
36434;DHT22;31691;51.972;5.672;2023-09-19T04:15:46;19.50;99.90
36434;DHT22;31691;51.972;5.672;2023-09-19T04:20:50;19.40;99.90
36434;DHT22;31691;51.972;5.672;2023-09-19T04:25:52;19.50;99.90
36434;DHT22;31691;51.972;5.672;2023-09-19T04:30:55;19.40;99.90
36434;DHT22;31691;51.972;5.672;2023-09-19T04:35:57;19.40;99.90
36434;DHT22;31691;51.972;5.672;2023-09-19T04:41:09;19.50;99.90
36434;DHT22;31691;51.972;5.672;2023-09-19T04:46:11;19.40;99.90
36434;DHT22;31691;51.972;5.672;2023-09-19T04:51:16;19.50;99.90
36434;DHT22;31691;51.972;5.672;2023-09-19T04:56:20;19.40;99.90
36434;DHT22;31691;51.972;5.672;2023-09-19T05:01:23;19.50;99.90
36434;DHT22;31691;51.972;5.672;2023-09-19T05:06:25;19.40;99.90
36434;DHT22;31691;51.972;5.672;2023-09-19T05:11:28;19.30;99.90
36434;DHT22;31691;51.972;5.672;2023-09-19T05:16:32;19.50;99.90
36434;DHT22;31691;51.972;5.672;2023-09-19T05:21:35;19.60;99.90
36434;DHT22;31691;51.972;5.672;2023-09-19T05:26:37;19.70;99.90
36434;DHT22;31691;51.972;5.672;2023-09-19T05:31:39;19.60;99.90
36434;DHT22;31691;51.972;5.672;2023-09-19T05:36:43;19.80;99.90
36434;DHT22;31691;51.972;5.672;2023-09-19T05:41:45;19.80;99.90
36434;DHT22;31691;51.972;5.672;2023-09-19T05:46:49;19.70;99.90
36434;DHT22;31691;51.972;5.672;2023-09-19T05:51:51;19.90;99.90
36434;DHT22;31691;51.972;5.672;2023-09-19T05:56:57;19.90;99.90
36434;DHT22;31691;51.972;5.672;2023-09-19T06:01:59;19.80;99.90
36434;DHT22;31691;51.972;5.672;2023-09-19T06:07:03;19.90;99.90
36434;DHT22;31691;51.972;5.672;2023-09-19T06:12:07;19.90;99.90
36434;DHT22;31691;51.972;5.672;2023-09-19T06:17:10;20.00;99.90
36434;DHT22;31691;51.972;5.672;2023-09-19T06:22:15;20.20;99.90
36434;DHT22;31691;51.972;5.672;2023-09-19T06:27:20;20.30;99.90
36434;DHT22;31691;51.972;5.672;2023-09-19T06:32:27;20.30;99.90
36434;DHT22;31691;51.972;5.672;2023-09-19T06:37:30;20.40;99.90
36434;DHT22;31691;51.972;5.672;2023-09-19T06:42:32;20.60;99.90
36434;DHT22;31691;51.972;5.672;2023-09-19T06:47:34;20.60;99.90
36434;DHT22;31691;51.972;5.672;2023-09-19T06:52:37;20.80;99.90
36434;DHT22;31691;51.972;5.672;2023-09-19T06:57:40;20.80;99.90
36434;DHT22;31691;51.972;5.672;2023-09-19T07:02:45;20.90;99.90
36434;DHT22;31691;51.972;5.672;2023-09-19T07:07:56;21.10;99.90
36434;DHT22;31691;51.972;5.672;2023-09-19T07:13:03;21.20;99.90
36434;DHT22;31691;51.972;5.672;2023-09-19T07:18:06;21.10;99.90
36434;DHT22;31691;51.972;5.672;2023-09-19T07:23:12;21.10;99.90
36434;DHT22;31691;51.972;5.672;2023-09-19T07:28:16;21.20;99.90
36434;DHT22;31691;51.972;5.672;2023-09-19T07:33:18;21.40;99.90
36434;DHT22;31691;51.972;5.672;2023-09-19T07:38:20;21.30;99.90
36434;DHT22;31691;51.972;5.672;2023-09-19T07:43:23;21.50;99.90
36434;DHT22;31691;51.972;5.672;2023-09-19T07:48:26;21.30;99.90
36434;DHT22;31691;51.972;5.672;2023-09-19T07:53:28;21.60;99.90
36434;DHT22;31691;51.972;5.672;2023-09-19T07:58:30;21.40;99.90
36434;DHT22;31691;51.972;5.672;2023-09-19T08:03:33;21.70;99.90
36434;DHT22;31691;51.972;5.672;2023-09-19T08:08:36;21.70;99.90
36434;DHT22;31691;51.972;5.672;2023-09-19T08:13:39;21.80;99.90
36434;DHT22;31691;51.972;5.672;2023-09-19T08:18:48;21.70;99.90
36434;DHT22;31691;51.972;5.672;2023-09-19T08:23:57;22.10;99.90
36434;DHT22;31691;51.972;5.672;2023-09-19T08:28:59;22.10;99.90
36434;DHT22;31691;51.972;5.672;2023-09-19T08:34:07;22.40;99.90
36434;DHT22;31691;51.972;5.672;2023-09-19T08:39:09;22.30;99.90
36434;DHT22;31691;51.972;5.672;2023-09-19T08:44:13;22.60;99.90
36434;DHT22;31691;51.972;5.672;2023-09-19T08:49:37;22.70;99.90
36434;DHT22;31691;51.972;5.672;2023-09-19T08:54:41;22.80;99.80
36434;DHT22;31691;51.972;5.672;2023-09-19T08:59:44;22.90;99.50
36434;DHT22;31691;51.972;5.672;2023-09-19T09:04:47;22.50;99.60
36434;DHT22;31691;51.972;5.672;2023-09-19T09:09:51;22.90;99.90
36434;DHT22;31691;51.972;5.672;2023-09-19T09:14:53;23.20;99.20
36434;DHT22;31691;51.972;5.672;2023-09-19T09:19:56;23.40;98.90
36434;DHT22;31691;51.972;5.672;2023-09-19T09:24:59;23.60;98.90
36434;DHT22;31691;51.972;5.672;2023-09-19T09:30:06;24.10;97.70
36434;DHT22;31691;51.972;5.672;2023-09-19T09:35:10;24.30;97.00
36434;DHT22;31691;51.972;5.672;2023-09-19T09:40:12;24.30;96.80
36434;DHT22;31691;51.972;5.672;2023-09-19T09:45:24;24.60;96.20
36434;DHT22;31691;51.972;5.672;2023-09-19T09:50:47;24.80;95.90
36434;DHT22;31691;51.972;5.672;2023-09-19T09:56:10;24.80;95.20
36434;DHT22;31691;51.972;5.672;2023-09-19T10:01:14;24.20;95.90
36434;DHT22;31691;51.972;5.672;2023-09-19T10:06:18;24.20;95.80
36434;DHT22;31691;51.972;5.672;2023-09-19T10:11:27;24.20;96.40
36434;DHT22;31691;51.972;5.672;2023-09-19T10:16:34;24.10;95.90
36434;DHT22;31691;51.972;5.672;2023-09-19T10:21:38;24.20;95.80
36434;DHT22;31691;51.972;5.672;2023-09-19T10:26:42;24.30;95.80
36434;DHT22;31691;51.972;5.672;2023-09-19T10:31:47;24.30;96.20
36434;DHT22;31691;51.972;5.672;2023-09-19T10:36:51;24.80;95.90
36434;DHT22;31691;51.972;5.672;2023-09-19T10:41:55;25.10;94.70
36434;DHT22;31691;51.972;5.672;2023-09-19T10:47:02;25.10;94.80
36434;DHT22;31691;51.972;5.672;2023-09-19T10:52:06;25.60;94.40
36434;DHT22;31691;51.972;5.672;2023-09-19T10:57:20;25.60;94.10
36434;DHT22;31691;51.972;5.672;2023-09-19T11:02:24;25.90;93.90
36434;DHT22;31691;51.972;5.672;2023-09-19T11:07:27;25.80;93.50
36434;DHT22;31691;51.972;5.672;2023-09-19T11:17:42;25.30;94.20
36434;DHT22;31691;51.972;5.672;2023-09-19T11:33:22;25.00;94.40
36434;DHT22;31691;51.972;5.672;2023-09-19T11:49:10;26.10;92.50
36434;DHT22;31691;51.972;5.672;2023-09-19T11:54:15;25.30;93.80
36434;DHT22;31691;51.972;5.672;2023-09-19T11:59:22;25.80;93.20
36434;DHT22;31691;51.972;5.672;2023-09-19T12:04:41;25.90;92.10
36434;DHT22;31691;51.972;5.672;2023-09-19T12:09:50;26.00;92.50
36434;DHT22;31691;51.972;5.672;2023-09-19T12:14:54;25.40;92.50
36434;DHT22;31691;51.972;5.672;2023-09-19T12:19:56;25.60;93.00
36434;DHT22;31691;51.972;5.672;2023-09-19T12:25:06;25.80;92.30
36434;DHT22;31691;51.972;5.672;2023-09-19T12:30:10;25.60;91.90
36434;DHT22;31691;51.972;5.672;2023-09-19T12:35:29;25.40;92.40
36434;DHT22;31691;51.972;5.672;2023-09-19T12:40:33;25.40;92.90
36434;DHT22;31691;51.972;5.672;2023-09-19T12:45:38;25.30;92.30
36434;DHT22;31691;51.972;5.672;2023-09-19T12:51:04;24.90;92.90
36434;DHT22;31691;51.972;5.672;2023-09-19T12:56:09;24.80;93.30
36434;DHT22;31691;51.972;5.672;2023-09-19T13:01:16;25.10;93.40
36434;DHT22;31691;51.972;5.672;2023-09-19T13:06:35;24.90;93.50
36434;DHT22;31691;51.972;5.672;2023-09-19T13:11:41;24.90;93.50
36434;DHT22;31691;51.972;5.672;2023-09-19T13:17:02;24.90;93.50
36434;DHT22;31691;51.972;5.672;2023-09-19T13:22:43;24.60;93.40
36434;DHT22;31691;51.972;5.672;2023-09-19T13:27:51;24.60;93.80
36434;DHT22;31691;51.972;5.672;2023-09-19T13:33:11;24.60;94.20
36434;DHT22;31691;51.972;5.672;2023-09-19T13:38:15;24.50;94.30
36434;DHT22;31691;51.972;5.672;2023-09-19T13:43:18;24.40;94.30
36434;DHT22;31691;51.972;5.672;2023-09-19T13:48:20;24.30;94.30
36434;DHT22;31691;51.972;5.672;2023-09-19T13:53:24;24.60;94.90
36434;DHT22;31691;51.972;5.672;2023-09-19T13:58:27;24.80;94.60
36434;DHT22;31691;51.972;5.672;2023-09-19T14:03:32;25.10;93.70
36434;DHT22;31691;51.972;5.672;2023-09-19T14:08:34;25.40;94.00
36434;DHT22;31691;51.972;5.672;2023-09-19T14:13:37;25.60;93.50
36434;DHT22;31691;51.972;5.672;2023-09-19T14:18:39;25.40;93.60
36434;DHT22;31691;51.972;5.672;2023-09-19T14:23:42;25.10;93.50
36434;DHT22;31691;51.972;5.672;2023-09-19T14:28:45;25.30;93.70
36434;DHT22;31691;51.972;5.672;2023-09-19T14:33:57;25.30;93.30
36434;DHT22;31691;51.972;5.672;2023-09-19T14:39:01;24.90;93.90
36434;DHT22;31691;51.972;5.672;2023-09-19T14:44:03;25.20;93.70
36434;DHT22;31691;51.972;5.672;2023-09-19T14:49:07;25.10;94.10
36434;DHT22;31691;51.972;5.672;2023-09-19T14:54:12;25.20;93.60
36434;DHT22;31691;51.972;5.672;2023-09-19T14:59:14;25.20;93.90
36434;DHT22;31691;51.972;5.672;2023-09-19T15:04:17;25.10;93.90
36434;DHT22;31691;51.972;5.672;2023-09-19T15:09:22;25.10;94.30
36434;DHT22;31691;51.972;5.672;2023-09-19T15:14:27;25.10;94.10
36434;DHT22;31691;51.972;5.672;2023-09-19T15:19:31;25.10;94.10
36434;DHT22;31691;51.972;5.672;2023-09-19T15:24:33;24.90;94.10
36434;DHT22;31691;51.972;5.672;2023-09-19T15:29:36;24.80;94.20
36434;DHT22;31691;51.972;5.672;2023-09-19T15:34:39;24.80;94.30
36434;DHT22;31691;51.972;5.672;2023-09-19T15:39:41;24.70;94.50
36434;DHT22;31691;51.972;5.672;2023-09-19T15:44:43;24.80;94.40
36434;DHT22;31691;51.972;5.672;2023-09-19T15:49:48;24.60;94.70
36434;DHT22;31691;51.972;5.672;2023-09-19T15:54:51;24.90;94.70
36434;DHT22;31691;51.972;5.672;2023-09-19T15:59:54;24.90;94.60
36434;DHT22;31691;51.972;5.672;2023-09-19T16:04:59;24.60;94.80
36434;DHT22;31691;51.972;5.672;2023-09-19T16:10:03;24.90;94.30
36434;DHT22;31691;51.972;5.672;2023-09-19T16:15:06;24.80;94.60
36434;DHT22;31691;51.972;5.672;2023-09-19T16:20:12;24.60;95.00
36434;DHT22;31691;51.972;5.672;2023-09-19T16:25:15;24.30;95.50
36434;DHT22;31691;51.972;5.672;2023-09-19T16:30:17;23.70;97.00
36434;DHT22;31691;51.972;5.672;2023-09-19T16:35:20;23.60;96.70
36434;DHT22;31691;51.972;5.672;2023-09-19T16:40:22;23.60;96.30
36434;DHT22;31691;51.972;5.672;2023-09-19T16:45:25;23.80;96.30
36434;DHT22;31691;51.972;5.672;2023-09-19T16:50:27;24.00;96.00
36434;DHT22;31691;51.972;5.672;2023-09-19T16:55:33;24.00;95.70
36434;DHT22;31691;51.972;5.672;2023-09-19T17:00:36;24.20;95.80
36434;DHT22;31691;51.972;5.672;2023-09-19T17:05:39;24.40;95.50
36434;DHT22;31691;51.972;5.672;2023-09-19T17:10:42;24.50;95.40
36434;DHT22;31691;51.972;5.672;2023-09-19T17:15:46;24.30;95.40
36434;DHT22;31691;51.972;5.672;2023-09-19T17:20:48;24.10;95.70
36434;DHT22;31691;51.972;5.672;2023-09-19T17:25:59;24.10;95.90
36434;DHT22;31691;51.972;5.672;2023-09-19T17:31:03;24.20;95.90
36434;DHT22;31691;51.972;5.672;2023-09-19T17:36:12;24.20;95.90
36434;DHT22;31691;51.972;5.672;2023-09-19T17:41:16;24.30;95.80
36434;DHT22;31691;51.972;5.672;2023-09-19T17:46:18;24.20;95.70
36434;DHT22;31691;51.972;5.672;2023-09-19T17:51:22;24.10;95.90
36434;DHT22;31691;51.972;5.672;2023-09-19T17:56:24;24.20;96.10
36434;DHT22;31691;51.972;5.672;2023-09-19T18:01:27;24.00;96.20
36434;DHT22;31691;51.972;5.672;2023-09-19T18:06:31;23.80;96.30
36434;DHT22;31691;51.972;5.672;2023-09-19T18:11:34;23.80;96.80
36434;DHT22;31691;51.972;5.672;2023-09-19T18:16:36;23.70;97.00
36434;DHT22;31691;51.972;5.672;2023-09-19T18:21:39;23.40;97.90
36434;DHT22;31691;51.972;5.672;2023-09-19T18:26:48;23.30;98.90
36434;DHT22;31691;51.972;5.672;2023-09-19T18:31:50;23.20;99.80
36434;DHT22;31691;51.972;5.672;2023-09-19T18:36:53;23.00;99.90
36434;DHT22;31691;51.972;5.672;2023-09-19T18:41:56;22.90;99.90
36434;DHT22;31691;51.972;5.672;2023-09-19T18:46:58;22.90;99.90
36434;DHT22;31691;51.972;5.672;2023-09-19T18:52:03;22.90;99.90
36434;DHT22;31691;51.972;5.672;2023-09-19T18:57:07;23.10;99.90
36434;DHT22;31691;51.972;5.672;2023-09-19T19:02:09;22.70;99.90
36434;DHT22;31691;51.972;5.672;2023-09-19T19:07:12;22.50;99.90
36434;DHT22;31691;51.972;5.672;2023-09-19T19:12:18;22.30;99.90
36434;DHT22;31691;51.972;5.672;2023-09-19T19:17:20;22.50;99.90
36434;DHT22;31691;51.972;5.672;2023-09-19T19:22:23;22.30;99.90
36434;DHT22;31691;51.972;5.672;2023-09-19T19:27:25;22.60;99.90
36434;DHT22;31691;51.972;5.672;2023-09-19T19:32:27;22.40;99.90
36434;DHT22;31691;51.972;5.672;2023-09-19T19:37:31;22.80;99.90
36434;DHT22;31691;51.972;5.672;2023-09-19T19:42:33;22.80;99.90
36434;DHT22;31691;51.972;5.672;2023-09-19T19:47:35;22.70;99.90
36434;DHT22;31691;51.972;5.672;2023-09-19T19:52:37;22.70;99.90
36434;DHT22;31691;51.972;5.672;2023-09-19T19:57:40;22.70;99.90
36434;DHT22;31691;51.972;5.672;2023-09-19T20:02:43;22.80;99.90
36434;DHT22;31691;51.972;5.672;2023-09-19T20:07:46;22.90;99.90
36434;DHT22;31691;51.972;5.672;2023-09-19T20:12:50;22.90;99.90
36434;DHT22;31691;51.972;5.672;2023-09-19T20:17:54;23.00;99.90
36434;DHT22;31691;51.972;5.672;2023-09-19T20:23:02;23.10;99.90
36434;DHT22;31691;51.972;5.672;2023-09-19T20:28:05;23.10;99.90
36434;DHT22;31691;51.972;5.672;2023-09-19T20:33:08;23.20;99.90
36434;DHT22;31691;51.972;5.672;2023-09-19T20:38:13;23.00;99.90
36434;DHT22;31691;51.972;5.672;2023-09-19T20:43:16;23.20;99.90
36434;DHT22;31691;51.972;5.672;2023-09-19T20:48:18;23.30;99.90
36434;DHT22;31691;51.972;5.672;2023-09-19T20:53:21;23.50;99.80
36434;DHT22;31691;51.972;5.672;2023-09-19T20:58:23;23.50;99.70
36434;DHT22;31691;51.972;5.672;2023-09-19T21:03:25;23.40;99.40
36434;DHT22;31691;51.972;5.672;2023-09-19T21:08:28;23.40;99.50
36434;DHT22;31691;51.972;5.672;2023-09-19T21:13:30;23.40;99.50
36434;DHT22;31691;51.972;5.672;2023-09-19T21:18:33;23.50;99.20
36434;DHT22;31691;51.972;5.672;2023-09-19T21:23:36;23.30;99.40
36434;DHT22;31691;51.972;5.672;2023-09-19T21:28:39;23.30;99.70
36434;DHT22;31691;51.972;5.672;2023-09-19T21:33:42;23.10;99.90
36434;DHT22;31691;51.972;5.672;2023-09-19T21:38:46;23.30;99.80
36434;DHT22;31691;51.972;5.672;2023-09-19T21:43:49;23.50;99.60
36434;DHT22;31691;51.972;5.672;2023-09-19T21:48:53;23.20;99.90
36434;DHT22;31691;51.972;5.672;2023-09-19T21:53:57;23.20;99.90
36434;DHT22;31691;51.972;5.672;2023-09-19T21:59:00;23.50;99.90
36434;DHT22;31691;51.972;5.672;2023-09-19T22:04:03;23.50;99.90
36434;DHT22;31691;51.972;5.672;2023-09-19T22:09:05;23.30;99.90
36434;DHT22;31691;51.972;5.672;2023-09-19T22:14:07;23.30;99.90
36434;DHT22;31691;51.972;5.672;2023-09-19T22:19:09;23.20;99.90
36434;DHT22;31691;51.972;5.672;2023-09-19T22:24:12;23.40;99.90
36434;DHT22;31691;51.972;5.672;2023-09-19T22:29:17;23.40;99.90
36434;DHT22;31691;51.972;5.672;2023-09-19T22:34:21;23.40;99.90
36434;DHT22;31691;51.972;5.672;2023-09-19T22:39:23;23.60;99.90
36434;DHT22;31691;51.972;5.672;2023-09-19T22:44:27;23.60;99.90
36434;DHT22;31691;51.972;5.672;2023-09-19T22:49:30;23.70;99.80
36434;DHT22;31691;51.972;5.672;2023-09-19T22:54:36;23.70;99.60
36434;DHT22;31691;51.972;5.672;2023-09-19T22:59:39;23.90;99.10
36434;DHT22;31691;51.972;5.672;2023-09-19T23:04:42;23.90;99.00
36434;DHT22;31691;51.972;5.672;2023-09-19T23:09:45;23.90;98.80
36434;DHT22;31691;51.972;5.672;2023-09-19T23:14:49;23.90;98.50
36434;DHT22;31691;51.972;5.672;2023-09-19T23:19:51;23.90;98.60
36434;DHT22;31691;51.972;5.672;2023-09-19T23:24:58;23.90;98.50
36434;DHT22;31691;51.972;5.672;2023-09-19T23:30:14;23.90;98.60
36434;DHT22;31691;51.972;5.672;2023-09-19T23:35:25;23.80;98.40
36434;DHT22;31691;51.972;5.672;2023-09-19T23:40:29;23.80;98.40
36434;DHT22;31691;51.972;5.672;2023-09-19T23:45:32;23.70;98.60
36434;DHT22;31691;51.972;5.672;2023-09-19T23:50:39;23.90;98.40
36434;DHT22;31691;51.972;5.672;2023-09-19T23:55:43;23.90;98.40
